createdAt,value
2022-08-24T07:23:41.170Z,26.45
2022-08-24T07:26:23.532Z,27.55
2022-08-24T07:29:05.588Z,26.85
2022-08-24T07:31:47.871Z,27.83
2022-08-24T07:34:33.619Z,27.40
2022-08-24T07:37:09.482Z,26.10
2022-08-24T07:39:52.186Z,26.47
2022-08-24T07:42:31.857Z,26.70
2022-08-24T07:45:12.852Z,25.70
2022-08-24T07:47:55.446Z,28.17
2022-08-24T07:50:45.780Z,25.05
2022-08-24T07:53:23.917Z,25.10
2022-08-24T07:56:05.251Z,24.35
2022-08-24T07:58:44.487Z,25.23
2022-08-24T08:01:22.348Z,22.10
2022-08-24T08:03:57.872Z,24.33
2022-08-24T08:06:32.626Z,24.05
2022-08-24T08:09:10.425Z,26.23
2022-08-24T08:11:49.688Z,23.73
2022-08-24T08:14:28.792Z,24.33
2022-08-24T08:17:07.398Z,22.73
2022-08-24T08:19:44.290Z,24.42
2022-08-24T08:22:35.439Z,24.55
2022-08-24T08:25:27.467Z,22.02
2022-08-24T08:28:18.517Z,22.35
2022-08-24T08:31:04.426Z,21.75
2022-08-24T08:33:43.670Z,20.00
2022-08-24T08:36:21.816Z,22.30
2022-08-24T08:38:57.541Z,21.02
2022-08-24T08:41:52.060Z,23.20
2022-08-24T08:44:41.802Z,20.65
2022-08-24T08:47:25.540Z,20.43
2022-08-24T08:49:56.455Z,21.70
2022-08-24T08:53:03.924Z,22.77
2022-08-24T08:55:41.417Z,21.93
2022-08-24T08:58:25.087Z,21.35
2022-08-24T09:01:08.312Z,22.10
2022-08-24T09:04:25.402Z,21.30
2022-08-24T09:07:35.350Z,22.60
2022-08-24T09:10:23.234Z,21.15
2022-08-24T09:13:15.263Z,20.85
2022-08-24T09:16:10.627Z,21.00
2022-08-24T09:18:43.510Z,22.35
2022-08-24T09:21:41.434Z,22.50
2022-08-24T09:24:32.823Z,23.45
2022-08-24T09:27:20.529Z,24.75
2022-08-24T09:30:03.706Z,25.20
2022-08-24T09:32:51.480Z,24.48
2022-08-24T09:35:30.106Z,23.20
2022-08-24T09:38:08.550Z,25.90
2022-08-24T09:40:54.286Z,25.83
2022-08-24T09:44:03.518Z,24.40
2022-08-24T09:47:08.000Z,25.23
2022-08-24T09:49:56.230Z,24.33
2022-08-24T09:52:59.637Z,24.40
2022-08-24T09:56:04.410Z,23.37
2022-08-24T09:58:48.272Z,23.40
2022-08-24T10:01:25.575Z,21.15
2022-08-24T10:04:12.782Z,20.48
2022-08-24T10:06:57.932Z,21.70
2022-08-24T10:09:50.633Z,21.93
2022-08-24T10:12:32.304Z,22.63
2022-08-24T10:15:11.295Z,21.02
2022-08-24T10:17:50.398Z,22.25
2022-08-24T10:20:26.514Z,20.60
2022-08-24T10:23:20.915Z,20.40
2022-08-24T10:25:57.842Z,20.60
2022-08-24T10:28:42.607Z,19.42
2022-08-24T10:31:20.746Z,19.25
2022-08-24T10:34:01.682Z,18.83
2022-08-24T10:37:05.697Z,19.70
2022-08-24T10:39:57.850Z,17.92
2022-08-24T10:43:02.953Z,20.27
2022-08-24T10:45:33.588Z,18.50
2022-08-24T10:48:17.474Z,18.42
2022-08-24T10:50:57.031Z,18.85
2022-08-24T10:53:33.266Z,17.67
2022-08-24T10:56:13.025Z,17.98
2022-08-24T10:58:55.715Z,18.08
2022-08-24T11:01:33.988Z,17.70
2022-08-24T11:04:11.799Z,15.82
2022-08-24T11:06:48.051Z,17.50
2022-08-24T11:09:22.883Z,17.83
2022-08-24T11:12:00.388Z,16.80
2022-08-24T11:14:35.230Z,17.97
2022-08-24T11:17:18.197Z,18.58
2022-08-24T11:19:54.149Z,19.20
2022-08-24T11:22:37.158Z,18.52
2022-08-24T11:25:16.852Z,17.48
2022-08-24T11:27:55.180Z,18.38
2022-08-24T11:30:30.964Z,17.20
2022-08-24T11:33:06.832Z,18.10
2022-08-24T11:35:42.039Z,17.55
2022-08-24T11:38:19.251Z,17.03
2022-08-24T11:40:56.751Z,18.10
2022-08-24T11:43:39.694Z,17.67
2022-08-24T11:46:21.218Z,18.75
2022-08-24T11:49:01.601Z,17.13
2022-08-24T11:51:43.634Z,18.83
2022-08-24T11:54:24.971Z,16.45
2022-08-24T11:57:08.495Z,17.80
2022-08-24T11:59:48.863Z,18.42
2022-08-24T12:02:28.820Z,17.00
2022-08-24T12:05:06.814Z,16.73
2022-08-24T12:07:50.873Z,17.02
2022-08-24T12:10:32.806Z,17.30
2022-08-24T12:13:10.167Z,16.60
2022-08-24T12:15:52.222Z,15.87
2022-08-24T12:18:30.575Z,15.88
2022-08-24T12:21:12.585Z,16.27
2022-08-24T12:23:47.909Z,16.55
2022-08-24T12:26:30.260Z,14.80
2022-08-24T12:29:06.093Z,16.42
2022-08-24T12:31:45.658Z,16.00
2022-08-24T12:34:21.802Z,15.70
2022-08-24T12:37:02.676Z,16.08
2022-08-24T12:39:43.274Z,16.33
2022-08-24T12:42:20.403Z,16.25
2022-08-24T12:44:57.001Z,15.95
2022-08-24T12:47:37.827Z,16.13
2022-08-24T12:50:15.547Z,17.10
2022-08-24T12:53:04.354Z,16.10
2022-08-24T12:56:09.612Z,15.98
2022-08-24T12:59:03.465Z,16.40
2022-08-24T13:01:38.760Z,15.98
2022-08-24T13:06:59.430Z,13.37
2022-08-24T13:09:37.185Z,15.98
2022-08-24T13:12:41.979Z,15.60
2022-08-24T13:15:45.879Z,14.02
2022-08-24T13:18:52.925Z,14.38
2022-08-24T13:21:23.712Z,14.80
2022-08-24T13:24:28.430Z,14.60
2022-08-24T13:27:50.416Z,14.20
2022-08-24T13:30:35.211Z,13.77
2022-08-24T13:33:11.973Z,14.30
2022-08-24T13:36:02.669Z,15.20
2022-08-24T13:38:52.123Z,15.23
2022-08-24T13:41:50.092Z,15.73
2022-08-24T13:44:24.754Z,14.75
2022-08-24T13:47:09.552Z,15.10
2022-08-24T13:50:02.326Z,14.65
2022-08-24T13:52:45.418Z,15.00
2022-08-24T13:55:32.867Z,14.93
2022-08-24T13:58:16.414Z,14.15
2022-08-24T14:00:52.356Z,15.50
2022-08-24T14:03:56.788Z,15.85
2022-08-24T14:06:30.639Z,15.43
2022-08-24T14:09:18.865Z,15.95
2022-08-24T14:12:15.133Z,14.95
2022-08-24T14:14:45.633Z,15.40
2022-08-24T14:17:38.482Z,15.48
2022-08-24T14:20:22.511Z,14.25
2022-08-24T14:22:56.568Z,15.20
2022-08-24T14:25:33.999Z,16.17
2022-08-24T14:28:37.514Z,15.27
2022-08-24T14:31:11.810Z,14.60
2022-08-24T14:33:50.920Z,13.90
2022-08-24T14:36:32.264Z,14.07
2022-08-24T14:39:09.454Z,15.10
2022-08-24T14:42:01.304Z,15.33
2022-08-24T14:44:52.909Z,13.18
2022-08-24T14:47:35.956Z,13.85
2022-08-24T14:50:13.419Z,13.45
2022-08-24T14:53:10.462Z,14.80
2022-08-24T14:55:45.851Z,12.52
2022-08-24T14:58:29.761Z,12.05
2022-08-24T15:01:28.110Z,11.88
2022-08-24T15:04:36.182Z,12.50
2022-08-24T15:07:31.446Z,14.07
2022-08-24T15:10:15.045Z,13.35
2022-08-24T15:12:54.517Z,13.43
2022-08-24T15:15:34.892Z,13.52
2022-08-24T15:18:16.952Z,13.80
2022-08-24T15:21:01.499Z,13.27
2022-08-24T15:23:49.824Z,13.60
2022-08-24T15:26:34.014Z,12.63
2022-08-24T15:29:13.955Z,12.45
2022-08-24T15:31:58.767Z,11.68
2022-08-24T15:34:48.995Z,12.32
2022-08-24T15:37:35.601Z,12.35
2022-08-24T15:40:29.965Z,13.07
2022-08-24T15:43:07.585Z,11.77
2022-08-24T15:45:49.777Z,12.10
2022-08-24T15:48:27.091Z,11.73
2022-08-24T15:51:01.908Z,12.17
2022-08-24T15:53:39.136Z,11.70
2022-08-24T15:56:35.833Z,13.68
2022-08-24T15:59:14.529Z,11.60
2022-08-24T16:02:02.615Z,10.65
2022-08-24T16:04:44.181Z,11.35
2022-08-24T16:07:24.488Z,11.30
2022-08-24T16:10:06.750Z,11.07
2022-08-24T16:12:42.213Z,11.85
2022-08-24T16:15:20.762Z,11.82
2022-08-24T16:17:59.632Z,11.75
2022-08-24T16:20:36.091Z,17.42
2022-08-24T16:23:11.554Z,14.50
2022-08-24T16:25:50.572Z,14.40
2022-08-24T16:28:36.637Z,12.60
2022-08-24T16:31:15.491Z,11.23
2022-08-24T16:33:49.987Z,12.07
2022-08-24T16:36:25.159Z,11.27
2022-08-24T16:39:02.519Z,13.10
2022-08-24T16:41:38.985Z,12.30
2022-08-24T16:44:13.900Z,12.63
2022-08-24T16:46:52.119Z,12.37
2022-08-24T16:49:26.838Z,12.40
2022-08-24T16:52:03.357Z,14.13
2022-08-24T16:54:37.542Z,12.63
2022-08-24T16:57:15.104Z,12.10
2022-08-24T16:59:50.149Z,12.60
2022-08-24T17:02:27.834Z,12.30
2022-08-24T17:05:02.363Z,11.52
2022-08-24T17:07:36.773Z,12.68
2022-08-24T17:10:14.309Z,12.75
2022-08-24T17:12:48.924Z,13.98
2022-08-24T17:15:24.377Z,13.07
2022-08-24T17:20:36.389Z,12.68
2022-08-24T17:23:10.697Z,13.30
2022-08-24T17:25:49.824Z,12.57
2022-08-24T17:28:29.824Z,13.48
2022-08-24T17:31:06.347Z,13.65
2022-08-24T17:33:43.938Z,13.75
2022-08-24T17:36:19.560Z,14.25
2022-08-24T17:38:56.133Z,13.95
2022-08-24T17:41:30.528Z,13.73
2022-08-24T17:44:06.800Z,14.13
2022-08-24T17:46:42.628Z,14.48
2022-08-24T17:49:20.046Z,15.57
2022-08-24T17:51:55.494Z,14.53
2022-08-24T17:54:30.247Z,15.20
2022-08-24T17:57:04.873Z,15.70
2022-08-24T17:59:41.688Z,16.23
2022-08-24T18:02:17.005Z,15.55
2022-08-24T18:04:54.848Z,15.60
2022-08-24T18:07:49.549Z,15.98
2022-08-24T18:10:26.108Z,12.90
2022-08-24T18:13:01.195Z,15.77
2022-08-24T18:15:37.295Z,17.08
2022-08-24T18:18:13.370Z,16.75
2022-08-24T18:20:51.439Z,15.85
2022-08-24T18:23:25.501Z,14.80
2022-08-24T18:25:59.884Z,15.27
2022-08-24T18:28:35.558Z,15.77
2022-08-24T18:31:13.202Z,15.18
2022-08-24T18:33:50.099Z,16.83
2022-08-24T18:36:28.514Z,15.73
2022-08-24T18:39:07.020Z,14.85
2022-08-24T18:41:42.014Z,16.33
2022-08-24T18:44:18.848Z,15.70
2022-08-24T18:46:53.542Z,16.52
2022-08-24T18:49:28.734Z,14.23
2022-08-24T18:52:07.328Z,15.30
2022-08-24T18:54:44.963Z,13.55
2022-08-24T18:57:20.438Z,12.30
2022-08-24T18:59:55.449Z,13.53
2022-08-24T19:02:40.950Z,13.82
2022-08-24T19:05:17.862Z,14.63
2022-08-24T19:07:56.219Z,14.27
2022-08-24T19:10:32.560Z,15.48
2022-08-24T19:13:09.558Z,15.32
2022-08-24T19:15:43.566Z,14.10
2022-08-24T19:18:18.170Z,17.20
2022-08-24T19:20:56.083Z,16.67
2022-08-24T19:23:35.857Z,18.35
2022-08-24T19:26:10.836Z,16.70
2022-08-24T19:28:45.538Z,16.40
2022-08-24T19:31:24.388Z,19.20
2022-08-24T19:34:00.116Z,20.25
2022-08-24T19:36:40.018Z,17.80
2022-08-24T19:39:17.698Z,18.58
2022-08-24T19:41:57.633Z,19.77
2022-08-24T19:44:51.719Z,16.42
2022-08-24T19:47:26.785Z,15.82
2022-08-24T19:50:01.527Z,16.17
2022-08-24T19:52:35.752Z,14.63
2022-08-24T19:55:15.036Z,16.43
2022-08-24T19:57:52.395Z,15.43
2022-08-24T20:00:29.715Z,16.70
2022-08-24T20:03:06.396Z,16.95
2022-08-24T20:05:44.085Z,17.10
2022-08-24T20:08:20.517Z,16.20
2022-08-24T20:10:59.259Z,17.13
2022-08-24T20:13:36.930Z,19.35
2022-08-24T20:16:12.268Z,16.95
2022-08-24T20:18:46.672Z,16.30
2022-08-24T20:21:27.048Z,19.03
2022-08-24T20:24:09.524Z,18.77
2022-08-24T20:26:45.644Z,22.05
2022-08-24T20:29:24.256Z,22.10
2022-08-24T20:32:02.803Z,19.35
2022-08-24T20:34:39.932Z,23.85
2022-08-24T20:37:14.887Z,24.85
2022-08-24T20:39:49.833Z,19.10
2022-08-24T20:42:25.630Z,20.75
2022-08-24T20:45:02.878Z,18.40
2022-08-24T20:47:38.449Z,18.85
2022-08-24T20:52:48.643Z,18.65
2022-08-24T20:55:25.177Z,22.55
2022-08-24T20:58:03.368Z,19.37
2022-08-24T21:00:44.536Z,22.60
2022-08-24T21:03:15.857Z,22.70
2022-08-24T21:05:52.717Z,20.20
2022-08-24T21:08:28.536Z,23.65
2022-08-24T21:11:04.073Z,22.98
2022-08-24T21:13:39.102Z,22.50
2022-08-24T21:16:17.508Z,22.52
2022-08-24T21:18:51.867Z,19.33
2022-08-24T21:21:28.584Z,20.27
2022-08-24T21:24:02.893Z,22.67
2022-08-24T21:26:37.606Z,22.88
2022-08-24T21:29:12.254Z,22.75
2022-08-24T21:32:09.881Z,20.08
2022-08-24T21:34:42.762Z,22.17
2022-08-24T21:37:20.091Z,22.58
2022-08-24T21:39:55.172Z,25.23
2022-08-24T21:42:31.320Z,23.75
2022-08-24T21:45:08.169Z,27.10
2022-08-24T21:47:45.912Z,28.10
2022-08-24T21:50:25.620Z,25.75
2022-08-24T21:53:01.219Z,24.85
2022-08-24T21:55:35.928Z,29.20
2022-08-24T21:58:11.149Z,27.60
2022-08-24T22:00:46.034Z,29.88
2022-08-24T22:03:23.310Z,27.60
2022-08-24T22:05:58.063Z,28.25
2022-08-24T22:08:33.227Z,27.15
2022-08-24T22:11:08.210Z,31.02
2022-08-24T22:13:43.321Z,28.10
2022-08-24T22:16:18.906Z,30.95
2022-08-24T22:18:59.091Z,28.88
2022-08-24T22:21:36.282Z,25.58
2022-08-24T22:24:10.906Z,25.77
2022-08-24T22:26:46.284Z,27.30
2022-08-24T22:29:20.602Z,30.37
2022-08-24T22:31:55.943Z,30.80
2022-08-24T22:34:36.723Z,27.80
2022-08-24T22:37:14.170Z,27.48
2022-08-24T22:39:50.158Z,28.58
2022-08-24T22:42:25.235Z,23.70
2022-08-24T22:45:01.613Z,25.77
2022-08-24T22:47:36.047Z,23.10
2022-08-24T22:50:13.999Z,27.33
2022-08-24T22:52:52.982Z,21.40
2022-08-24T22:55:28.069Z,20.10
2022-08-24T22:58:02.728Z,25.45
2022-08-24T23:00:38.543Z,23.15
2022-08-24T23:03:13.685Z,20.35
2022-08-24T23:05:50.856Z,24.50
2022-08-24T23:08:25.837Z,22.55
2022-08-24T23:11:07.064Z,19.85
2022-08-24T23:13:41.415Z,22.15
2022-08-24T23:16:17.775Z,19.40
2022-08-24T23:19:05.014Z,18.13
2022-08-24T23:21:45.382Z,21.27
2022-08-24T23:24:20.286Z,19.75
2022-08-24T23:26:56.140Z,22.98
2022-08-24T23:29:30.490Z,17.80
2022-08-24T23:32:05.336Z,17.77
2022-08-24T23:34:43.109Z,22.10
2022-08-24T23:37:20.892Z,22.92
2022-08-24T23:39:56.457Z,22.20
2022-08-24T23:42:30.741Z,25.57
2022-08-24T23:45:08.282Z,19.27
2022-08-24T23:47:46.882Z,22.23
2022-08-24T23:50:22.313Z,22.80
2022-08-24T23:52:59.558Z,26.23
2022-08-24T23:55:36.747Z,21.27
2022-08-24T23:58:12.308Z,26.55
